sensor_id;sensor_type;location;lat;lon;timestamp;pressure;altitude;pressure_sealevel;temperature;humidity
37238;BME280;23129;49.662;8.448;2023-02-17T00:01:36;101491.81;;;9.92;100.00
37238;BME280;23129;49.662;8.448;2023-02-17T00:04:05;101490.03;;;9.95;100.00
37238;BME280;23129;49.662;8.448;2023-02-17T00:06:34;101487.44;;;9.94;100.00
37238;BME280;23129;49.662;8.448;2023-02-17T00:09:03;101489.13;;;9.98;100.00
37238;BME280;23129;49.662;8.448;2023-02-17T00:11:31;101490.88;;;9.97;100.00
37238;BME280;23129;49.662;8.448;2023-02-17T00:13:59;101489.13;;;9.98;100.00
37238;BME280;23129;49.662;8.448;2023-02-17T00:16:28;101487.41;;;9.97;100.00
37238;BME280;23129;49.662;8.448;2023-02-17T00:18:58;101483.88;;;9.99;100.00
37238;BME280;23129;49.662;8.448;2023-02-17T00:21:30;101489.97;;;10.01;100.00
37238;BME280;23129;49.662;8.448;2023-02-17T00:24:00;101493.44;;;10.03;100.00
37238;BME280;23129;49.662;8.448;2023-02-17T00:26:28;101496.06;;;10.08;100.00
37238;BME280;23129;49.662;8.448;2023-02-17T00:28:57;101494.22;;;10.13;100.00
37238;BME280;23129;49.662;8.448;2023-02-17T00:31:26;101495.91;;;10.23;100.00
37238;BME280;23129;49.662;8.448;2023-02-17T00:33:57;101501.97;;;10.33;100.00
37238;BME280;23129;49.662;8.448;2023-02-17T00:36:27;101492.25;;;10.40;100.00
37238;BME280;23129;49.662;8.448;2023-02-17T00:38:57;101499.22;;;10.44;100.00
37238;BME280;23129;49.662;8.448;2023-02-17T00:41:28;101486.84;;;10.57;100.00
37238;BME280;23129;49.662;8.448;2023-02-17T00:43:57;101517.34;;;10.67;100.00
37238;BME280;23129;49.662;8.448;2023-02-17T00:46:26;101498.81;;;10.79;100.00
37238;BME280;23129;49.662;8.448;2023-02-17T00:48:55;101494.41;;;10.84;100.00
37238;BME280;23129;49.662;8.448;2023-02-17T00:51:24;101496.06;;;10.91;100.00
37238;BME280;23129;49.662;8.448;2023-02-17T00:53:53;101487.28;;;10.95;100.00
37238;BME280;23129;49.662;8.448;2023-02-17T00:56:21;101478.44;;;11.00;100.00
37238;BME280;23129;49.662;8.448;2023-02-17T00:58:51;101487.19;;;11.02;100.00
37238;BME280;23129;49.662;8.448;2023-02-17T01:01:19;101478.41;;;11.04;100.00
37238;BME280;23129;49.662;8.448;2023-02-17T01:03:47;101470.50;;;11.06;100.00
37238;BME280;23129;49.662;8.448;2023-02-17T01:06:23;101486.25;;;11.06;100.00
37238;BME280;23129;49.662;8.448;2023-02-17T01:08:52;101479.22;;;11.08;100.00
37238;BME280;23129;49.662;8.448;2023-02-17T01:11:23;101480.09;;;11.07;100.00
37238;BME280;23129;49.662;8.448;2023-02-17T01:13:54;101487.16;;;11.05;100.00
37238;BME280;23129;49.662;8.448;2023-02-17T01:16:26;101491.53;;;11.03;100.00
37238;BME280;23129;49.662;8.448;2023-02-17T01:18:57;101493.34;;;10.97;100.00
37238;BME280;23129;49.662;8.448;2023-02-17T01:21:27;101488.97;;;11.00;100.00
37238;BME280;23129;49.662;8.448;2023-02-17T01:23:59;101489.81;;;11.00;100.00
37238;BME280;23129;49.662;8.448;2023-02-17T01:26:31;101488.06;;;11.01;99.82
37238;BME280;23129;49.662;8.448;2023-02-17T01:29:04;101491.56;;;11.01;99.84
37238;BME280;23129;49.662;8.448;2023-02-17T01:31:32;101497.69;;;11.00;100.00
37238;BME280;23129;49.662;8.448;2023-02-17T01:34:03;101496.88;;;10.98;99.92
37238;BME280;23129;49.662;8.448;2023-02-17T01:36:32;101501.22;;;10.97;100.00
37238;BME280;23129;49.662;8.448;2023-02-17T01:39:01;101490.72;;;10.97;100.00
37238;BME280;23129;49.662;8.448;2023-02-17T01:41:29;101502.97;;;10.99;100.00
37238;BME280;23129;49.662;8.448;2023-02-17T01:44:12;101486.38;;;10.96;100.00
37238;BME280;23129;49.662;8.448;2023-02-17T01:46:43;101489.84;;;10.97;99.89
37238;BME280;23129;49.662;8.448;2023-02-17T01:49:24;101485.47;;;10.97;99.98
37238;BME280;23129;49.662;8.448;2023-02-17T01:52:00;101487.28;;;10.95;99.98
37238;BME280;23129;49.662;8.448;2023-02-17T01:54:37;101473.28;;;10.93;100.00
37238;BME280;23129;49.662;8.448;2023-02-17T01:57:09;101480.31;;;10.91;100.00
37238;BME280;23129;49.662;8.448;2023-02-17T01:59:41;101485.56;;;10.91;100.00
37238;BME280;23129;49.662;8.448;2023-02-17T02:02:09;101481.22;;;10.89;100.00
37238;BME280;23129;49.662;8.448;2023-02-17T02:04:44;101469.88;;;10.87;100.00
37238;BME280;23129;49.662;8.448;2023-02-17T02:07:17;101474.25;;;10.85;100.00
37238;BME280;23129;49.662;8.448;2023-02-17T02:09:51;101469.00;;;10.86;100.00
37238;BME280;23129;49.662;8.448;2023-02-17T02:12:23;101471.59;;;10.89;99.87
37238;BME280;23129;49.662;8.448;2023-02-17T02:14:56;101467.19;;;10.91;99.81
37238;BME280;23129;49.662;8.448;2023-02-17T02:17:32;101461.06;;;10.92;99.72
37238;BME280;23129;49.662;8.448;2023-02-17T02:20:32;101454.94;;;10.90;100.00
37238;BME280;23129;49.662;8.448;2023-02-17T02:26:32;101436.63;;;10.87;99.99
37238;BME280;23129;49.662;8.448;2023-02-17T02:29:40;101438.34;;;10.88;99.83
37238;BME280;23129;49.662;8.448;2023-02-17T02:32:49;101427.84;;;10.88;99.72
37238;BME280;23129;49.662;8.448;2023-02-17T02:35:24;101425.28;;;10.84;100.00
37238;BME280;23129;49.662;8.448;2023-02-17T02:38:01;101410.41;;;10.83;100.00
37238;BME280;23129;49.662;8.448;2023-02-17T02:40:37;101405.19;;;10.81;99.75
37238;BME280;23129;49.662;8.448;2023-02-17T02:43:08;101408.72;;;10.80;100.00
37238;BME280;23129;49.662;8.448;2023-02-17T02:45:37;101406.94;;;10.82;100.00
37238;BME280;23129;49.662;8.448;2023-02-17T02:48:07;101396.44;;;10.82;100.00
37238;BME280;23129;49.662;8.448;2023-02-17T02:51:11;101404.34;;;10.81;100.00
37238;BME280;23129;49.662;8.448;2023-02-17T02:54:06;101398.22;;;10.80;99.92
37238;BME280;23129;49.662;8.448;2023-02-17T02:56:55;101388.59;;;10.79;99.89
37238;BME280;23129;49.662;8.448;2023-02-17T02:59:40;101391.22;;;10.79;99.90
37238;BME280;23129;49.662;8.448;2023-02-17T03:02:20;101398.22;;;10.80;100.00
37238;BME280;23129;49.662;8.448;2023-02-17T03:04:57;101391.22;;;10.79;99.83
37238;BME280;23129;49.662;8.448;2023-02-17T03:07:33;101392.97;;;10.80;100.00
37238;BME280;23129;49.662;8.448;2023-02-17T03:10:04;101382.50;;;10.80;100.00
37238;BME280;23129;49.662;8.448;2023-02-17T03:12:35;101384.22;;;10.81;100.00
37238;BME280;23129;49.662;8.448;2023-02-17T03:15:11;101380.72;;;10.79;99.92
37238;BME280;23129;49.662;8.448;2023-02-17T03:17:41;101381.63;;;10.78;100.00
37238;BME280;23129;49.662;8.448;2023-02-17T03:20:12;101375.53;;;10.76;100.00
37238;BME280;23129;49.662;8.448;2023-02-17T03:22:44;101380.81;;;10.73;100.00
37238;BME280;23129;49.662;8.448;2023-02-17T03:25:15;101377.38;;;10.71;100.00
37238;BME280;23129;49.662;8.448;2023-02-17T03:27:44;101373.88;;;10.69;100.00
37238;BME280;23129;49.662;8.448;2023-02-17T03:30:14;101376.50;;;10.67;99.78
37238;BME280;23129;49.662;8.448;2023-02-17T03:32:42;101377.41;;;10.68;100.00
37238;BME280;23129;49.662;8.448;2023-02-17T03:35:12;101385.28;;;10.68;100.00
37238;BME280;23129;49.662;8.448;2023-02-17T03:37:41;101393.16;;;10.68;100.00
37238;BME280;23129;49.662;8.448;2023-02-17T03:40:10;101375.59;;;10.70;100.00
37238;BME280;23129;49.662;8.448;2023-02-17T03:42:38;101382.63;;;10.71;100.00
37238;BME280;23129;49.662;8.448;2023-02-17T03:45:07;101389.59;;;10.72;100.00
37238;BME280;23129;49.662;8.448;2023-02-17T03:47:36;101397.47;;;10.70;100.00
37238;BME280;23129;49.662;8.448;2023-02-17T03:50:06;101396.56;;;10.73;100.00
37238;BME280;23129;49.662;8.448;2023-02-17T03:52:36;101384.28;;;10.75;100.00
37238;BME280;23129;49.662;8.448;2023-02-17T03:55:05;101392.97;;;10.80;100.00
37238;BME280;23129;49.662;8.448;2023-02-17T03:57:33;101391.19;;;10.82;100.00
37238;BME280;23129;49.662;8.448;2023-02-17T04:00:03;101383.31;;;10.82;100.00
37238;BME280;23129;49.662;8.448;2023-02-17T04:02:39;101386.78;;;10.83;100.00
37238;BME280;23129;49.662;8.448;2023-02-17T04:05:10;101395.56;;;10.82;100.00
37238;BME280;23129;49.662;8.448;2023-02-17T04:07:40;101397.28;;;10.83;100.00
37238;BME280;23129;49.662;8.448;2023-02-17T04:10:09;101391.19;;;10.82;100.00
37238;BME280;23129;49.662;8.448;2023-02-17T04:12:37;101387.72;;;10.80;100.00
37238;BME280;23129;49.662;8.448;2023-02-17T04:15:07;101395.56;;;10.82;100.00
37238;BME280;23129;49.662;8.448;2023-02-17T04:17:36;101389.41;;;10.83;100.00
37238;BME280;23129;49.662;8.448;2023-02-17T04:20:06;101387.69;;;10.83;100.00
37238;BME280;23129;49.662;8.448;2023-02-17T04:22:35;101388.56;;;10.84;100.00
37238;BME280;23129;49.662;8.448;2023-02-17T04:25:05;101399.91;;;10.84;100.00
37238;BME280;23129;49.662;8.448;2023-02-17T04:27:33;101401.63;;;10.85;100.00
37238;BME280;23129;49.662;8.448;2023-02-17T04:30:02;101402.50;;;10.86;100.00
37238;BME280;23129;49.662;8.448;2023-02-17T04:32:31;101405.13;;;10.86;100.00
37238;BME280;23129;49.662;8.448;2023-02-17T04:34:59;101407.75;;;10.86;100.00
37238;BME280;23129;49.662;8.448;2023-02-17T04:37:28;101409.47;;;10.88;100.00
37238;BME280;23129;49.662;8.448;2023-02-17T04:39:56;101413.00;;;10.89;100.00
37238;BME280;23129;49.662;8.448;2023-02-17T04:42:26;101406.81;;;10.91;100.00
37238;BME280;23129;49.662;8.448;2023-02-17T04:44:54;101402.44;;;10.92;100.00
37238;BME280;23129;49.662;8.448;2023-02-17T04:47:23;101398.09;;;10.89;100.00
37238;BME280;23129;49.662;8.448;2023-02-17T04:49:51;101400.72;;;10.89;100.00
37238;BME280;23129;49.662;8.448;2023-02-17T04:52:20;101399.88;;;10.87;100.00
37238;BME280;23129;49.662;8.448;2023-02-17T04:54:48;101403.41;;;10.85;100.00
37238;BME280;23129;49.662;8.448;2023-02-17T04:57:17;101404.31;;;10.84;100.00
37238;BME280;23129;49.662;8.448;2023-02-17T04:59:46;101397.28;;;10.83;100.00
37238;BME280;23129;49.662;8.448;2023-02-17T05:02:15;101392.97;;;10.80;100.00
37238;BME280;23129;49.662;8.448;2023-02-17T05:04:44;101401.72;;;10.79;100.00
37238;BME280;23129;49.662;8.448;2023-02-17T05:07:13;101400.00;;;10.78;100.00
37238;BME280;23129;49.662;8.448;2023-02-17T05:09:41;101409.63;;;10.78;100.00
37238;BME280;23129;49.662;8.448;2023-02-17T05:12:10;101407.88;;;10.77;100.00
37238;BME280;23129;49.662;8.448;2023-02-17T05:14:39;101404.38;;;10.76;100.00
37238;BME280;23129;49.662;8.448;2023-02-17T05:17:08;101393.88;;;10.76;100.00
37238;BME280;23129;49.662;8.448;2023-02-17T05:19:37;101402.66;;;10.73;100.00
37238;BME280;23129;49.662;8.448;2023-02-17T05:22:05;101407.06;;;10.73;100.00
37238;BME280;23129;49.662;8.448;2023-02-17T05:24:34;101398.34;;;10.71;100.00
37238;BME280;23129;49.662;8.448;2023-02-17T05:27:05;101413.22;;;10.70;100.00
37238;BME280;23129;49.662;8.448;2023-02-17T05:29:33;101406.22;;;10.69;100.00
37238;BME280;23129;49.662;8.448;2023-02-17T05:32:02;101405.38;;;10.69;100.00
37238;BME280;23129;49.662;8.448;2023-02-17T05:34:32;101416.75;;;10.68;100.00
37238;BME280;23129;49.662;8.448;2023-02-17T05:37:00;101417.63;;;10.67;100.00
37238;BME280;23129;49.662;8.448;2023-02-17T05:39:29;101417.63;;;10.67;100.00
37238;BME280;23129;49.662;8.448;2023-02-17T05:41:57;101403.66;;;10.68;100.00
37238;BME280;23129;49.662;8.448;2023-02-17T05:44:26;101408.88;;;10.68;100.00
37238;BME280;23129;49.662;8.448;2023-02-17T05:46:55;101408.88;;;10.68;100.00
37238;BME280;23129;49.662;8.448;2023-02-17T05:49:23;101417.63;;;10.67;100.00
37238;BME280;23129;49.662;8.448;2023-02-17T05:51:53;101416.75;;;10.66;100.00
37238;BME280;23129;49.662;8.448;2023-02-17T05:54:21;101419.41;;;10.65;100.00
37238;BME280;23129;49.662;8.448;2023-02-17T05:56:49;101411.53;;;10.65;100.00
37238;BME280;23129;49.662;8.448;2023-02-17T05:59:18;101429.06;;;10.63;100.00
37238;BME280;23129;49.662;8.448;2023-02-17T06:01:47;101428.19;;;10.62;100.00
37238;BME280;23129;49.662;8.448;2023-02-17T06:04:17;101424.69;;;10.62;100.00
37238;BME280;23129;49.662;8.448;2023-02-17T06:06:45;101424.69;;;10.62;100.00
37238;BME280;23129;49.662;8.448;2023-02-17T06:09:15;101429.94;;;10.62;100.00
37238;BME280;23129;49.662;8.448;2023-02-17T06:11:43;101429.97;;;10.60;100.00
37238;BME280;23129;49.662;8.448;2023-02-17T06:14:12;101428.25;;;10.58;100.00
37238;BME280;23129;49.662;8.448;2023-02-17T06:16:40;101426.50;;;10.57;100.00
37238;BME280;23129;49.662;8.448;2023-02-17T06:19:09;101426.50;;;10.57;100.00
37238;BME280;23129;49.662;8.448;2023-02-17T06:21:37;101423.00;;;10.58;100.00
37238;BME280;23129;49.662;8.448;2023-02-17T06:24:08;101423.88;;;10.57;100.00
37238;BME280;23129;49.662;8.448;2023-02-17T06:26:38;101429.97;;;10.59;100.00
37238;BME280;23129;49.662;8.448;2023-02-17T06:29:06;101425.63;;;10.58;100.00
37238;BME280;23129;49.662;8.448;2023-02-17T06:31:35;101418.59;;;10.60;100.00
37238;BME280;23129;49.662;8.448;2023-02-17T06:34:04;101425.63;;;10.59;100.00
37238;BME280;23129;49.662;8.448;2023-02-17T06:36:33;101415.13;;;10.59;100.00
37238;BME280;23129;49.662;8.448;2023-02-17T06:39:01;101422.09;;;10.59;100.00
37238;BME280;23129;49.662;8.448;2023-02-17T06:41:30;101421.22;;;10.60;100.00
37238;BME280;23129;49.662;8.448;2023-02-17T06:43:59;101428.25;;;10.58;100.00
37238;BME280;23129;49.662;8.448;2023-02-17T06:46:28;101429.97;;;10.59;100.00
37238;BME280;23129;49.662;8.448;2023-02-17T06:48:57;101429.09;;;10.58;100.00
37238;BME280;23129;49.662;8.448;2023-02-17T06:51:26;101427.34;;;10.59;100.00
37238;BME280;23129;49.662;8.448;2023-02-17T06:53:55;101435.22;;;10.59;100.00
37238;BME280;23129;49.662;8.448;2023-02-17T06:56:24;101436.97;;;10.60;100.00
37238;BME280;23129;49.662;8.448;2023-02-17T06:58:52;101436.97;;;10.60;100.00
37238;BME280;23129;49.662;8.448;2023-02-17T07:01:23;101442.22;;;10.60;100.00
37238;BME280;23129;49.662;8.448;2023-02-17T07:03:53;101445.72;;;10.59;100.00
37238;BME280;23129;49.662;8.448;2023-02-17T07:06:22;101446.59;;;10.58;100.00
37238;BME280;23129;49.662;8.448;2023-02-17T07:08:51;101443.97;;;10.59;100.00
37238;BME280;23129;49.662;8.448;2023-02-17T07:11:20;101445.66;;;10.62;100.00
37238;BME280;23129;49.662;8.448;2023-02-17T07:13:48;101459.66;;;10.64;100.00
37238;BME280;23129;49.662;8.448;2023-02-17T07:16:17;101459.63;;;10.67;100.00
37238;BME280;23129;49.662;8.448;2023-02-17T07:18:47;101456.13;;;10.68;100.00
37238;BME280;23129;49.662;8.448;2023-02-17T07:21:15;101468.34;;;10.69;100.00
37238;BME280;23129;49.662;8.448;2023-02-17T07:23:44;101463.97;;;10.69;100.00
37238;BME280;23129;49.662;8.448;2023-02-17T07:26:13;101470.06;;;10.70;100.00
37238;BME280;23129;49.662;8.448;2023-02-17T07:28:42;101477.06;;;10.71;100.00
37238;BME280;23129;49.662;8.448;2023-02-17T07:31:13;101475.28;;;10.73;100.00
37238;BME280;23129;49.662;8.448;2023-02-17T07:33:41;101483.97;;;10.77;100.00
37238;BME280;23129;49.662;8.448;2023-02-17T07:36:15;101477.88;;;10.78;100.00
37238;BME280;23129;49.662;8.448;2023-02-17T07:38:44;101471.72;;;10.80;100.00
37238;BME280;23129;49.662;8.448;2023-02-17T07:41:14;101475.13;;;10.85;100.00
37238;BME280;23129;49.662;8.448;2023-02-17T07:43:44;101476.00;;;10.89;100.00
37238;BME280;23129;49.662;8.448;2023-02-17T07:46:16;101478.56;;;10.90;100.00
37238;BME280;23129;49.662;8.448;2023-02-17T07:48:45;101466.31;;;10.92;100.00
37238;BME280;23129;49.662;8.448;2023-02-17T07:51:17;101459.25;;;10.94;100.00
37238;BME280;23129;49.662;8.448;2023-02-17T07:53:47;101459.25;;;10.94;100.00
37238;BME280;23129;49.662;8.448;2023-02-17T07:56:17;101468.00;;;10.96;100.00
37238;BME280;23129;49.662;8.448;2023-02-17T07:58:47;101460.97;;;10.99;100.00
37238;BME280;23129;49.662;8.448;2023-02-17T08:01:18;101471.44;;;11.02;100.00
37238;BME280;23129;49.662;8.448;2023-02-17T08:03:47;101472.25;;;11.04;100.00
37238;BME280;23129;49.662;8.448;2023-02-17T08:06:19;101476.63;;;11.06;100.00
37238;BME280;23129;49.662;8.448;2023-02-17T08:08:49;101482.72;;;11.08;100.00
37238;BME280;23129;49.662;8.448;2023-02-17T08:11:36;101479.19;;;11.11;100.00
37238;BME280;23129;49.662;8.448;2023-02-17T08:14:24;101464.28;;;11.13;100.00
37238;BME280;23129;49.662;8.448;2023-02-17T08:16:53;101493.97;;;11.18;100.00
37238;BME280;23129;49.662;8.448;2023-02-17T08:19:22;101479.06;;;11.20;100.00
37238;BME280;23129;49.662;8.448;2023-02-17T08:21:57;101475.53;;;11.21;100.00
37238;BME280;23129;49.662;8.448;2023-02-17T08:24:26;101467.66;;;11.21;100.00
37238;BME280;23129;49.662;8.448;2023-02-17T08:26:55;101453.66;;;11.22;100.00
37238;BME280;23129;49.662;8.448;2023-02-17T08:29:23;101465.06;;;11.19;100.00
37238;BME280;23129;49.662;8.448;2023-02-17T08:31:52;101467.69;;;11.18;100.00
37238;BME280;23129;49.662;8.448;2023-02-17T08:34:21;101464.22;;;11.19;100.00
37238;BME280;23129;49.662;8.448;2023-02-17T08:36:49;101465.97;;;11.17;100.00
37238;BME280;23129;49.662;8.448;2023-02-17T08:39:19;101464.25;;;11.16;100.00
37238;BME280;23129;49.662;8.448;2023-02-17T08:41:47;101447.63;;;11.14;100.00
37238;BME280;23129;49.662;8.448;2023-02-17T08:44:17;101441.47;;;11.15;100.00
37238;BME280;23129;49.662;8.448;2023-02-17T08:46:48;101465.06;;;11.18;100.00
37238;BME280;23129;49.662;8.448;2023-02-17T08:49:19;101455.44;;;11.20;100.00
37238;BME280;23129;49.662;8.448;2023-02-17T08:51:49;101467.69;;;11.18;100.00
37238;BME280;23129;49.662;8.448;2023-02-17T08:54:19;101457.28;;;11.13;100.00
37238;BME280;23129;49.662;8.448;2023-02-17T08:56:47;101456.47;;;11.08;100.00
37238;BME280;23129;49.662;8.448;2023-02-17T08:59:16;101448.59;;;11.07;100.00
37238;BME280;23129;49.662;8.448;2023-02-17T09:01:44;101450.31;;;11.11;100.00
37238;BME280;23129;49.662;8.448;2023-02-17T09:04:14;101446.72;;;11.15;100.00
37238;BME280;23129;49.662;8.448;2023-02-17T09:06:46;101455.44;;;11.20;100.00
37238;BME280;23129;49.662;8.448;2023-02-17T09:09:17;101450.19;;;11.20;100.00
37238;BME280;23129;49.662;8.448;2023-02-17T09:11:48;101455.47;;;11.17;100.00
37238;BME280;23129;49.662;8.448;2023-02-17T09:14:16;101462.53;;;11.13;100.00
37238;BME280;23129;49.662;8.448;2023-02-17T09:16:45;101463.41;;;11.14;100.00
37238;BME280;23129;49.662;8.448;2023-02-17T09:19:13;101466.84;;;11.17;100.00
37238;BME280;23129;49.662;8.448;2023-02-17T09:21:42;101466.84;;;11.19;100.00
37238;BME280;23129;49.662;8.448;2023-02-17T09:24:10;101471.13;;;11.23;100.00
37238;BME280;23129;49.662;8.448;2023-02-17T09:26:39;101477.22;;;11.28;100.00
37238;BME280;23129;49.662;8.448;2023-02-17T09:29:09;101477.13;;;11.33;100.00
37238;BME280;23129;49.662;8.448;2023-02-17T09:31:38;101475.31;;;11.38;100.00
37238;BME280;23129;49.662;8.448;2023-02-17T09:34:06;101472.59;;;11.42;100.00
37238;BME280;23129;49.662;8.448;2023-02-17T09:36:39;101456.78;;;11.47;100.00
37238;BME280;23129;49.662;8.448;2023-02-17T09:39:08;101453.25;;;11.50;100.00
37238;BME280;23129;49.662;8.448;2023-02-17T09:41:43;101454.97;;;11.51;100.00
37238;BME280;23129;49.662;8.448;2023-02-17T09:44:21;101461.94;;;11.55;100.00
37238;BME280;23129;49.662;8.448;2023-02-17T09:46:57;101457.44;;;11.60;100.00
37238;BME280;23129;49.662;8.448;2023-02-17T09:49:35;101461.78;;;11.64;100.00
37238;BME280;23129;49.662;8.448;2023-02-17T09:52:10;101453.00;;;11.65;100.00
37238;BME280;23129;49.662;8.448;2023-02-17T09:54:48;101467.00;;;11.67;100.00
37238;BME280;23129;49.662;8.448;2023-02-17T09:57:25;101472.19;;;11.70;100.00
37238;BME280;23129;49.662;8.448;2023-02-17T10:00:02;101479.19;;;11.71;100.00
37238;BME280;23129;49.662;8.448;2023-02-17T10:02:43;101486.16;;;11.72;100.00
37238;BME280;23129;49.662;8.448;2023-02-17T10:05:18;101501.91;;;11.74;100.00
37238;BME280;23129;49.662;8.448;2023-02-17T10:07:52;101494.84;;;11.77;100.00
37238;BME280;23129;49.662;8.448;2023-02-17T10:10:27;101479.88;;;11.81;100.00
37238;BME280;23129;49.662;8.448;2023-02-17T10:13:00;101493.03;;;11.82;100.00
37238;BME280;23129;49.662;8.448;2023-02-17T10:15:35;101491.22;;;11.84;100.00
37238;BME280;23129;49.662;8.448;2023-02-17T10:18:12;101490.34;;;11.87;100.00
37238;BME280;23129;49.662;8.448;2023-02-17T10:20:50;101496.47;;;11.84;100.00
37238;BME280;23129;49.662;8.448;2023-02-17T10:23:21;101504.56;;;11.74;100.00
37238;BME280;23129;49.662;8.448;2023-02-17T10:26:09;101510.84;;;11.62;100.00
37238;BME280;23129;49.662;8.448;2023-02-17T10:28:50;101512.72;;;11.54;100.00
37238;BME280;23129;49.662;8.448;2023-02-17T10:31:32;101519.78;;;11.52;100.00
37238;BME280;23129;49.662;8.448;2023-02-17T10:34:11;101517.06;;;11.56;100.00
37238;BME280;23129;49.662;8.448;2023-02-17T10:36:51;101510.03;;;11.58;100.00
37238;BME280;23129;49.662;8.448;2023-02-17T10:39:38;101512.59;;;11.63;100.00
37238;BME280;23129;49.662;8.448;2023-02-17T10:42:19;101512.44;;;11.72;100.00
37238;BME280;23129;49.662;8.448;2023-02-17T10:44:50;101502.72;;;11.79;100.00
37238;BME280;23129;49.662;8.448;2023-02-17T10:47:21;101507.00;;;11.84;100.00
37238;BME280;23129;49.662;8.448;2023-02-17T10:49:52;101499.06;;;11.91;100.00
37238;BME280;23129;49.662;8.448;2023-02-17T10:52:29;101498.13;;;11.95;100.00
37238;BME280;23129;49.662;8.448;2023-02-17T10:55:02;101509.44;;;12.00;100.00
37238;BME280;23129;49.662;8.448;2023-02-17T10:57:53;101501.44;;;12.06;100.00
37238;BME280;23129;49.662;8.448;2023-02-17T11:00:22;101494.31;;;12.11;100.00
37238;BME280;23129;49.662;8.448;2023-02-17T11:02:54;101493.34;;;12.17;100.00
37238;BME280;23129;49.662;8.448;2023-02-17T11:05:25;101490.66;;;12.21;100.00
37238;BME280;23129;49.662;8.448;2023-02-17T11:07:56;101491.41;;;12.26;100.00
37238;BME280;23129;49.662;8.448;2023-02-17T11:10:28;101491.41;;;12.28;100.00
37238;BME280;23129;49.662;8.448;2023-02-17T11:12:57;101495.75;;;12.30;100.00
37238;BME280;23129;49.662;8.448;2023-02-17T11:15:29;101492.22;;;12.31;100.00
37238;BME280;23129;49.662;8.448;2023-02-17T11:18:08;101505.34;;;12.33;100.00
37238;BME280;23129;49.662;8.448;2023-02-17T11:20:37;101499.22;;;12.32;100.00
37238;BME280;23129;49.662;8.448;2023-02-17T11:23:21;101485.19;;;12.32;100.00
37238;BME280;23129;49.662;8.448;2023-02-17T11:26:01;101494.84;;;12.31;100.00
37238;BME280;23129;49.662;8.448;2023-02-17T11:28:30;101483.44;;;12.32;100.00
37238;BME280;23129;49.662;8.448;2023-02-17T11:30:59;101482.53;;;12.33;100.00
37238;BME280;23129;49.662;8.448;2023-02-17T11:33:33;101474.63;;;12.33;100.00
37238;BME280;23129;49.662;8.448;2023-02-17T11:36:03;101493.91;;;12.36;100.00
37238;BME280;23129;49.662;8.448;2023-02-17T11:38:41;101479.84;;;12.37;100.00
37238;BME280;23129;49.662;8.448;2023-02-17T11:41:12;101464.91;;;12.39;100.00
37238;BME280;23129;49.662;8.448;2023-02-17T11:43:52;101455.19;;;12.41;100.00
37238;BME280;23129;49.662;8.448;2023-02-17T11:46:35;101456.94;;;12.42;100.00
37238;BME280;23129;49.662;8.448;2023-02-17T11:49:56;101449.00;;;12.43;100.00
37238;BME280;23129;49.662;8.448;2023-02-17T11:52:49;101455.06;;;12.47;100.00
37238;BME280;23129;49.662;8.448;2023-02-17T11:55:26;101454.97;;;12.53;100.00
37238;BME280;23129;49.662;8.448;2023-02-17T11:58:15;101460.09;;;12.59;100.00
37238;BME280;23129;49.662;8.448;2023-02-17T12:00:54;101472.22;;;12.68;100.00
37238;BME280;23129;49.662;8.448;2023-02-17T12:03:46;101472.13;;;12.72;100.00
37238;BME280;23129;49.662;8.448;2023-02-17T12:06:30;101468.53;;;12.76;100.00
37238;BME280;23129;49.662;8.448;2023-02-17T12:09:11;101468.47;;;12.79;100.00
37238;BME280;23129;49.662;8.448;2023-02-17T12:11:53;101463.97;;;12.85;100.00
37238;BME280;23129;49.662;8.448;2023-02-17T12:14:46;101470.94;;;12.87;100.00
37238;BME280;23129;49.662;8.448;2023-02-17T12:17:28;101462.94;;;12.92;100.00
37238;BME280;23129;49.662;8.448;2023-02-17T12:20:09;101455.81;;;12.97;100.00
37238;BME280;23129;49.662;8.448;2023-02-17T12:23:03;101464.50;;;13.02;100.00
37238;BME280;23129;49.662;8.448;2023-02-17T12:25:39;101477.47;;;13.10;100.00
37238;BME280;23129;49.662;8.448;2023-02-17T12:28:32;101506.38;;;13.14;100.00
37238;BME280;23129;49.662;8.448;2023-02-17T12:31:13;101464.09;;;13.20;99.83
37238;BME280;23129;49.662;8.448;2023-02-17T12:33:56;101475.38;;;13.29;99.76
37238;BME280;23129;49.662;8.448;2023-02-17T12:36:30;101469.09;;;13.33;99.14
37238;BME280;23129;49.662;8.448;2023-02-17T12:39:09;101486.50;;;13.40;98.99
37238;BME280;23129;49.662;8.448;2023-02-17T12:41:42;101459.06;;;13.48;98.78
37238;BME280;23129;49.662;8.448;2023-02-17T12:44:16;101458.91;;;13.56;99.07
37238;BME280;23129;49.662;8.448;2023-02-17T12:46:49;101447.28;;;13.65;98.23
37238;BME280;23129;49.662;8.448;2023-02-17T12:49:22;101445.41;;;13.68;98.06
37238;BME280;23129;49.662;8.448;2023-02-17T12:51:56;101432.22;;;13.70;97.74
37238;BME280;23129;49.662;8.448;2023-02-17T12:54:33;101445.34;;;13.72;97.59
37238;BME280;23129;49.662;8.448;2023-02-17T12:57:12;101432.16;;;13.72;97.75
37238;BME280;23129;49.662;8.448;2023-02-17T12:59:43;101425.97;;;13.73;97.61
37238;BME280;23129;49.662;8.448;2023-02-17T13:02:15;101430.47;;;13.69;97.74
37238;BME280;23129;49.662;8.448;2023-02-17T13:04:49;101412.13;;;13.64;97.22
37238;BME280;23129;49.662;8.448;2023-02-17T13:07:34;101418.41;;;13.59;97.15
37238;BME280;23129;49.662;8.448;2023-02-17T13:10:20;101409.81;;;13.52;97.30
37238;BME280;23129;49.662;8.448;2023-02-17T13:12:58;101414.25;;;13.50;97.71